»·PEaware :: N259DS KAVX-KSAN

N259DS :: KAVX-KSAN

FLIGHT INFORMATION

Flight Status: Arrived
Operator: Privately registered:
United States
More flights under this callsign
Pilot: Pratham R. (19019)
Aircraft: SOCATA TBM-900
(TBM9)
More flights by this aircraft type
Origin: KAVX Catalina
United States
Destination: KSAN San Diego Intl-Lindbergh
United States
More flights between these airports :: More routes between these airports
Route: +SXC V208 LAX118R CARDI MZB320R MZB
File this flight plan on PilotEdge
Remarks: TEC Route CSTP54 I-8 Rating
Altitude:
(Current/Filed)
9,000ft
Speed:
(Current/Filed)
220kts
Departed: 22-Jul-19 07:53 PM
Arrived: 22-Jul-19 08:29 PM
Distance/Time
Traveled:
74nm/0:35
Distance/Time
To Go:
Arrived

Flight Plot

Page will automatically refresh every two minutes.


Map Options




Map Legend


Flown Route
Filed Route
Departure Airport
Arrival Airport
Navaid (VOR, NDB)
Fix

Horizontal Profiles

Position Reports

Time Latitude Longitude Heading Altitude Ground
Speed
22-Jul-19 18:48 33.403166 -118.415563 318 1549ft 0kts
22-Jul-19 18:49 33.403166 -118.415563 318 1549ft 0kts
22-Jul-19 18:50 33.403166 -118.415563 318 1549ft 0kts
22-Jul-19 18:51 33.403166 -118.415563 318 1549ft 0kts
22-Jul-19 18:52 33.403166 -118.415563 318 1549ft 0kts
22-Jul-19 18:53 33.403166 -118.415563 318 1549ft 0kts
22-Jul-19 18:54 33.403166 -118.415563 318 1549ft 0kts
22-Jul-19 18:55 33.403166 -118.415563 318 1549ft 0kts
22-Jul-19 18:56 33.403166 -118.415563 318 1549ft 0kts
22-Jul-19 18:57 33.403166 -118.415563 318 1549ft 0kts
22-Jul-19 18:58 33.403166 -118.415563 318 1549ft 0kts
22-Jul-19 18:58 33.403166 -118.415563 318 1549ft 0kts
22-Jul-19 19:00 33.403166 -118.415563 318 1549ft 0kts
22-Jul-19 19:01 33.403166 -118.415563 318 1549ft 0kts
22-Jul-19 19:02 33.403166 -118.415563 318 1549ft 0kts
22-Jul-19 19:02 33.403166 -118.415563 318 1549ft 0kts
22-Jul-19 19:03 33.403166 -118.415563 318 1549ft 0kts
22-Jul-19 19:05 33.403166 -118.415563 318 1549ft 0kts
22-Jul-19 19:06 33.403166 -118.415563 318 1549ft 0kts
22-Jul-19 19:06 33.403166 -118.415563 318 1549ft 0kts
22-Jul-19 19:07 33.403166 -118.415563 318 1549ft 0kts
22-Jul-19 19:09 33.403166 -118.415563 318 1549ft 0kts
22-Jul-19 19:09 33.403166 -118.415563 318 1549ft 0kts
22-Jul-19 19:10 33.403166 -118.415563 318 1549ft 0kts
22-Jul-19 19:11 33.403166 -118.415563 318 1549ft 0kts
22-Jul-19 19:12 33.403166 -118.415563 318 1549ft 0kts
22-Jul-19 19:13 33.403166 -118.415563 318 1549ft 0kts
22-Jul-19 19:14 33.403166 -118.415563 318 1549ft 0kts
22-Jul-19 19:15 33.403166 -118.415563 318 1549ft 0kts
22-Jul-19 19:16 33.403166 -118.415563 318 1549ft 0kts
22-Jul-19 19:17 33.403166 -118.415563 318 1549ft 0kts
22-Jul-19 19:18 33.403166 -118.415563 318 1549ft 0kts
22-Jul-19 19:19 33.403166 -118.415563 318 1549ft 0kts
22-Jul-19 19:20 33.403166 -118.415563 318 1549ft 0kts
22-Jul-19 19:21 33.403166 -118.415563 318 1549ft 0kts
22-Jul-19 19:22 33.403166 -118.415563 318 1549ft 0kts
22-Jul-19 19:23 33.403166 -118.415563 318 1549ft 0kts
22-Jul-19 19:24 33.403166 -118.415563 318 1549ft 0kts
22-Jul-19 19:25 33.403166 -118.415563 318 1549ft 0kts
22-Jul-19 19:26 33.403166 -118.415563 318 1549ft 0kts
22-Jul-19 19:27 33.403166 -118.415563 318 1549ft 0kts
22-Jul-19 19:28 33.403166 -118.415563 318 1549ft 0kts
22-Jul-19 19:29 33.403166 -118.415563 318 1549ft 0kts
22-Jul-19 19:30 33.403166 -118.415563 318 1549ft 0kts
22-Jul-19 19:31 33.403166 -118.415563 318 1549ft 0kts
22-Jul-19 19:32 33.403166 -118.415563 318 1549ft 0kts
22-Jul-19 19:33 33.403166 -118.415563 318 1549ft 0kts
22-Jul-19 19:34 33.403166 -118.415563 318 1549ft 0kts
22-Jul-19 19:35 33.403166 -118.415563 318 1549ft 0kts
22-Jul-19 19:36 33.403166 -118.415563 318 1549ft 0kts
22-Jul-19 19:37 33.403166 -118.415563 318 1549ft 0kts
22-Jul-19 19:38 33.403166 -118.415563 318 1549ft 0kts
22-Jul-19 19:39 33.403166 -118.415563 318 1549ft 0kts
22-Jul-19 19:40 33.403166 -118.415563 318 1549ft 0kts
22-Jul-19 19:41 33.403166 -118.415563 318 1549ft 0kts
22-Jul-19 19:42 33.403166 -118.415563 318 1549ft 0kts
22-Jul-19 19:43 33.403166 -118.415563 318 1549ft 0kts
22-Jul-19 19:44 33.403166 -118.415563 318 1549ft 0kts
22-Jul-19 19:45 33.403166 -118.415563 318 1549ft 0kts
22-Jul-19 19:46 33.403166 -118.415563 318 1549ft 0kts
22-Jul-19 19:47 33.405096 -118.414918 39 1541ft 9kts
22-Jul-19 19:48 33.407156 -118.411462 48 1499ft 0kts
22-Jul-19 19:49 33.407156 -118.411462 48 1499ft 0kts
22-Jul-19 19:50 33.407156 -118.411462 48 1499ft 0kts
22-Jul-19 19:51 33.407256 -118.411964 235 1503ft 7kts
22-Jul-19 19:52 33.393859 -118.434917 235 2415ft 141kts
22-Jul-19 19:53 33.368036 -118.463419 223 2855ft 213kts
22-Jul-19 19:54 33.353179 -118.427895 17 3780ft 190kts
22-Jul-19 19:55 33.376444 -118.392960 109 5807ft 171kts
22-Jul-19 19:56 33.364817 -118.336554 99 7620ft 188kts
22-Jul-19 19:57 33.355736 -118.271396 98 9008ft 211kts
22-Jul-19 19:58 33.345490 -118.193857 98 8997ft 249kts
22-Jul-19 19:59 33.334452 -118.110351 98 8985ft 256kts
22-Jul-19 20:00 33.323239 -118.025982 98 9042ft 256kts
22-Jul-19 20:01 33.311912 -117.940934 100 9030ft 259kts
22-Jul-19 20:02 33.300376 -117.855233 100 9014ft 260kts
22-Jul-19 20:03 33.288803 -117.769543 100 9008ft 260kts
22-Jul-19 20:04 33.276234 -117.683903 101 9008ft 260kts
22-Jul-19 20:05 33.263323 -117.598472 101 9008ft 260kts
22-Jul-19 20:06 33.222947 -117.530088 134 9006ft 257kts
22-Jul-19 20:07 33.173342 -117.467933 134 8988ft 258kts
22-Jul-19 20:08 33.119161 -117.411874 154 8985ft 259kts
22-Jul-19 20:09 33.057746 -117.368405 131 8985ft 257kts
22-Jul-19 20:10 33.009455 -117.305082 131 8974ft 256kts
22-Jul-19 20:11 32.962135 -117.241694 131 8885ft 261kts
22-Jul-19 20:12 32.913938 -117.172698 131 7315ft 267kts
22-Jul-19 20:13 32.867887 -117.106577 131 6107ft 259kts
22-Jul-19 20:14 32.819424 -117.042902 131 4976ft 247kts
22-Jul-19 20:15 32.781634 -116.979306 121 4977ft 227kts
22-Jul-19 20:16 32.748380 -116.914881 121 4982ft 227kts
22-Jul-19 20:17 32.696537 -116.878636 181 4103ft 246kts
22-Jul-19 20:18 32.655102 -116.928739 251 3981ft 228kts
22-Jul-19 20:19 32.634808 -117.000073 258 3974ft 226kts
22-Jul-19 20:20 32.593210 -117.028039 132 3982ft 224kts
22-Jul-19 20:21 32.586963 -116.965729 41 4005ft 213kts
22-Jul-19 20:22 32.634806 -116.924592 359 3776ft 216kts
22-Jul-19 20:23 32.678481 -116.968868 299 3780ft 213kts
22-Jul-19 20:24 32.696497 -117.036422 286 3472ft 210kts
22-Jul-19 20:25 32.711366 -117.100883 286 2156ft 196kts
22-Jul-19 20:26 32.724043 -117.150060 287 749ft 129kts
22-Jul-19 20:27 32.731422 -117.180970 288 30ft 84kts
22-Jul-19 20:28 32.734805 -117.190590 55 16ft 4kts
22-Jul-19 20:29 32.734618 -117.188496 65 16ft 6kts
22-Jul-19 20:30 32.734823 -117.187881 134 16ft 0kts
22-Jul-19 20:31 32.734823 -117.187881 134 16ft 0kts
22-Jul-19 20:32 32.734823 -117.187881 134 16ft 0kts
22-Jul-19 20:33 32.734823 -117.187881 134 16ft 0kts
22-Jul-19 20:34 32.734823 -117.187881 134 16ft 0kts
22-Jul-19 20:35 32.734823 -117.187881 134 16ft 0kts
22-Jul-19 20:36 32.734823 -117.187881 134 16ft 0kts
22-Jul-19 20:37 32.734823 -117.187881 134 16ft 0kts
22-Jul-19 20:38 32.734823 -117.187881 134 16ft 0kts
22-Jul-19 20:39 32.734823 -117.187881 134 16ft 0kts
22-Jul-19 20:40 32.734823 -117.187881 134 16ft 0kts
22-Jul-19 20:41 32.734823 -117.187881 134 16ft 0kts
22-Jul-19 20:42 32.734823 -117.187881 134 16ft 0kts

Navigation Log

Ident Type
Flight plan parsing failed, navigation log unavailable